createdAt,value
2018-04-14T00:01:27.109Z,93.70
2018-04-14T00:03:54.609Z,93.60
2018-04-14T00:06:22.117Z,93.20
2018-04-14T00:08:49.618Z,93.10
2018-04-14T00:11:17.950Z,93.00
2018-04-14T00:13:45.389Z,93.00
2018-04-14T00:16:12.914Z,93.20
2018-04-14T00:18:41.972Z,93.40
2018-04-14T00:21:09.513Z,93.40
2018-04-14T00:23:37.016Z,93.70
2018-04-14T00:26:04.529Z,93.60
2018-04-14T00:28:32.025Z,93.80
2018-04-14T00:30:59.562Z,93.80
2018-04-14T00:33:27.047Z,93.60
2018-04-14T00:35:54.564Z,93.80
2018-04-14T00:38:22.831Z,93.10
2018-04-14T00:40:50.329Z,93.00
2018-04-14T00:43:17.819Z,93.20
2018-04-14T00:45:45.351Z,93.20
2018-04-14T00:48:12.846Z,93.10
2018-04-14T00:50:40.500Z,93.10
2018-04-14T00:53:19.772Z,92.90
2018-04-14T00:55:47.274Z,93.00
2018-04-14T00:58:14.791Z,92.90
2018-04-14T01:00:42.319Z,93.40
2018-04-14T01:03:09.866Z,93.70
2018-04-14T01:05:37.374Z,93.80
2018-04-14T01:08:04.925Z,94.10
2018-04-14T01:10:32.419Z,93.50
2018-04-14T01:13:00.688Z,93.60
2018-04-14T01:15:28.295Z,93.60
2018-04-14T01:17:55.824Z,93.40
2018-04-14T01:20:23.328Z,93.50
2018-04-14T01:22:50.834Z,93.60
2018-04-14T01:25:18.346Z,93.60
2018-04-14T01:27:45.872Z,93.50
2018-04-14T01:30:13.494Z,93.70
2018-04-14T01:32:41.000Z,93.50
2018-04-14T01:35:08.482Z,93.60
2018-04-14T01:37:36.760Z,93.90
2018-04-14T01:40:04.276Z,93.90
2018-04-14T01:42:31.777Z,93.90
2018-04-14T01:44:59.302Z,93.90
2018-04-14T01:47:26.806Z,94.00
2018-04-14T01:49:54.317Z,93.90
2018-04-14T01:52:21.830Z,93.90
2018-04-14T01:54:49.352Z,94.10
2018-04-14T01:57:16.868Z,94.10
2018-04-14T01:59:44.353Z,94.00
2018-04-14T02:02:11.870Z,93.80
2018-04-14T02:04:39.378Z,93.60
2018-04-14T02:07:07.682Z,93.70
2018-04-14T02:09:35.183Z,93.70
2018-04-14T02:12:02.712Z,93.60
2018-04-14T02:14:30.219Z,93.40
2018-04-14T02:16:57.717Z,93.60
2018-04-14T02:19:25.221Z,93.70
2018-04-14T02:21:52.755Z,94.00
2018-04-14T02:24:20.272Z,94.00
2018-04-14T02:26:48.357Z,94.40
2018-04-14T02:29:16.651Z,93.50
2018-04-14T02:31:44.963Z,94.00
2018-04-14T02:34:12.596Z,93.80
2018-04-14T02:36:40.870Z,93.50
2018-04-14T02:39:09.148Z,93.30
2018-04-14T02:41:36.655Z,93.30
2018-04-14T02:44:04.180Z,93.20
2018-04-14T02:46:32.451Z,93.00
2018-04-14T02:49:00.068Z,92.90
2018-04-14T02:51:27.574Z,93.10
2018-04-14T02:53:56.682Z,92.80
2018-04-14T02:56:24.286Z,92.80
2018-04-14T02:58:51.870Z,93.00
2018-04-14T03:01:19.352Z,93.10
2018-04-14T03:03:47.089Z,92.70
2018-04-14T03:06:14.618Z,92.50
2018-04-14T03:08:42.890Z,92.30
2018-04-14T03:11:10.400Z,92.30
2018-04-14T03:13:38.063Z,92.40
2018-04-14T03:16:05.577Z,92.40
2018-04-14T03:18:33.128Z,92.50
2018-04-14T03:21:00.626Z,92.30
2018-04-14T03:23:28.893Z,92.70
2018-04-14T03:25:56.564Z,92.70
2018-04-14T03:28:24.843Z,92.90
2018-04-14T03:30:53.120Z,92.70
2018-04-14T03:33:21.391Z,92.90
2018-04-14T03:35:49.056Z,92.80
2018-04-14T03:38:16.579Z,92.70
2018-04-14T03:40:44.092Z,92.90
2018-04-14T03:43:11.588Z,92.90
2018-04-14T03:45:39.870Z,92.70
2018-04-14T03:48:07.399Z,92.70
2018-04-14T03:50:35.680Z,92.90
2018-04-14T03:53:03.201Z,92.90
2018-04-14T03:55:30.700Z,93.00
2018-04-14T03:57:58.985Z,92.90
2018-04-14T04:00:28.900Z,93.00
2018-04-14T04:02:57.893Z,92.50
2018-04-14T04:05:26.996Z,92.80
2018-04-14T04:07:54.611Z,92.70
2018-04-14T04:10:22.102Z,92.50
2018-04-14T04:12:49.621Z,92.30
2018-04-14T04:15:17.764Z,92.70
2018-04-14T04:17:46.027Z,92.70
2018-04-14T04:20:23.233Z,92.70
2018-04-14T04:23:03.473Z,93.20
2018-04-14T04:25:39.830Z,93.20
2018-04-14T04:28:07.394Z,93.10
2018-04-14T04:30:34.869Z,93.00
2018-04-14T04:33:02.370Z,92.30
2018-04-14T04:35:29.880Z,92.50
2018-04-14T04:37:57.554Z,92.70
2018-04-14T04:40:25.092Z,93.00
2018-04-14T04:42:52.580Z,93.20
2018-04-14T04:45:20.061Z,92.80
2018-04-14T04:47:49.660Z,92.80
2018-04-14T04:50:17.198Z,93.00
2018-04-14T04:52:44.796Z,93.10
2018-04-14T04:55:12.306Z,93.00
2018-04-14T04:57:40.306Z,93.10
2018-04-14T05:00:07.874Z,93.10
2018-04-14T05:02:35.401Z,92.80
2018-04-14T05:05:02.898Z,92.90
2018-04-14T05:07:30.404Z,92.90
2018-04-14T05:09:58.770Z,92.80
2018-04-14T05:12:26.507Z,92.80
2018-04-14T05:14:54.055Z,92.60
2018-04-14T05:17:22.389Z,92.40
2018-04-14T05:19:50.646Z,92.50
2018-04-14T05:22:18.158Z,92.50
2018-04-14T05:24:46.537Z,92.50
2018-04-14T05:27:14.819Z,92.50
2018-04-14T05:29:43.140Z,92.50
2018-04-14T05:32:10.648Z,92.50
2018-04-14T05:34:38.191Z,92.60
2018-04-14T05:37:05.776Z,92.30
2018-04-14T05:39:34.067Z,92.30
2018-04-14T05:42:02.870Z,92.30
2018-04-14T05:44:31.142Z,92.00
2018-04-14T05:46:59.401Z,91.90
2018-04-14T05:49:27.098Z,91.90
2018-04-14T05:51:55.612Z,91.80
2018-04-14T05:54:23.205Z,92.00
2018-04-14T05:56:50.734Z,92.40
2018-04-14T05:59:18.250Z,92.20
2018-04-14T06:01:47.245Z,91.90
2018-04-14T06:04:14.798Z,91.90
2018-04-14T06:06:42.450Z,91.90
2018-04-14T06:09:10.063Z,91.70
2018-04-14T06:11:37.540Z,91.60
2018-04-14T06:14:05.035Z,91.60
2018-04-14T06:16:32.560Z,91.50
2018-04-14T06:19:00.845Z,90.90
2018-04-14T06:21:29.137Z,90.50
2018-04-14T06:23:56.636Z,90.50
2018-04-14T06:26:24.159Z,90.80
2018-04-14T06:28:51.661Z,90.90
2018-04-14T06:31:19.262Z,90.90
2018-04-14T06:33:48.425Z,91.30
2018-04-14T06:36:15.904Z,91.20
2018-04-14T06:38:43.430Z,90.50
2018-04-14T06:41:11.028Z,90.50
2018-04-14T06:43:38.591Z,90.90
2018-04-14T06:46:06.098Z,90.70
2018-04-14T06:48:34.388Z,90.00
2018-04-14T06:51:01.891Z,90.00
2018-04-14T06:53:29.435Z,89.90
2018-04-14T06:55:56.932Z,89.90
2018-04-14T06:58:24.549Z,89.90
2018-04-14T07:00:52.099Z,90.20
2018-04-14T07:03:20.398Z,90.10
2018-04-14T07:05:47.907Z,90.10
2018-04-14T07:08:15.418Z,89.60
2018-04-14T07:10:42.934Z,90.00
2018-04-14T07:13:10.434Z,89.60
2018-04-14T07:15:38.069Z,89.10
2018-04-14T07:18:05.636Z,88.70
2018-04-14T07:20:36.008Z,87.40
2018-04-14T07:23:04.356Z,87.00
2018-04-14T07:25:32.642Z,86.10
2018-04-14T07:28:00.910Z,84.40
2018-04-14T07:30:28.481Z,84.40
2018-04-14T07:32:55.984Z,83.60
2018-04-14T07:35:23.624Z,83.10
2018-04-14T07:37:51.906Z,82.90
2018-04-14T07:40:20.177Z,82.90
2018-04-14T07:42:47.724Z,83.00
2018-04-14T07:45:16.715Z,82.40
2018-04-14T07:47:44.289Z,83.00
2018-04-14T07:50:11.819Z,82.10
2018-04-14T07:52:39.327Z,81.40
2018-04-14T07:55:06.841Z,80.50
2018-04-14T07:57:36.074Z,81.80
2018-04-14T08:00:04.407Z,81.30
2018-04-14T08:02:31.990Z,81.30
2018-04-14T08:04:59.492Z,81.50
2018-04-14T08:07:27.024Z,80.40
2018-04-14T08:09:54.848Z,80.10
2018-04-14T08:12:23.149Z,80.20
2018-04-14T08:14:50.666Z,80.20
2018-04-14T08:17:19.331Z,80.20
2018-04-14T08:19:46.919Z,81.20
2018-04-14T08:22:17.096Z,81.40
2018-04-14T08:24:44.665Z,82.20
2018-04-14T08:27:12.174Z,81.90
2018-04-14T08:29:40.964Z,81.70
2018-04-14T08:32:10.470Z,81.50
2018-04-14T08:34:38.027Z,81.00
2018-04-14T08:37:07.028Z,80.50
2018-04-14T08:39:34.637Z,79.00
2018-04-14T08:42:05.182Z,77.70
2018-04-14T08:44:32.731Z,77.70
2018-04-14T08:47:00.268Z,76.50
2018-04-14T08:49:28.398Z,76.60
2018-04-14T08:51:55.914Z,76.50
2018-04-14T08:54:23.404Z,76.90
2018-04-14T08:56:50.900Z,76.10
2018-04-14T08:59:18.402Z,76.00
2018-04-14T09:01:45.909Z,76.50
2018-04-14T09:04:13.394Z,75.90
2018-04-14T09:06:41.029Z,75.40
2018-04-14T09:09:08.647Z,76.00
2018-04-14T09:11:36.156Z,74.40
2018-04-14T09:14:03.646Z,74.00
2018-04-14T09:16:31.170Z,75.00
2018-04-14T09:18:59.476Z,76.30
2018-04-14T09:21:27.024Z,76.30
2018-04-14T09:23:54.518Z,76.40
2018-04-14T09:26:22.029Z,75.50
2018-04-14T09:28:50.304Z,74.30
2018-04-14T09:31:17.834Z,74.30
2018-04-14T09:33:45.508Z,73.60
2018-04-14T09:36:13.073Z,72.80
2018-04-14T09:38:40.620Z,72.10
2018-04-14T09:41:08.176Z,71.80
2018-04-14T09:43:35.669Z,71.90
2018-04-14T09:46:03.168Z,71.50
2018-04-14T09:48:31.442Z,69.50
2018-04-14T09:50:59.765Z,69.30
2018-04-14T09:53:27.997Z,69.40
2018-04-14T09:55:55.526Z,69.30
2018-04-14T09:58:23.024Z,70.40
2018-04-14T10:00:56.176Z,70.50
2018-04-14T10:03:23.718Z,68.90
2018-04-14T10:05:51.278Z,66.40
2018-04-14T10:08:18.784Z,67.00
2018-04-14T10:10:46.292Z,65.30
2018-04-14T10:13:14.573Z,66.20
2018-04-14T10:15:42.870Z,66.70
2018-04-14T10:18:12.054Z,66.10
2018-04-14T10:20:39.549Z,66.10
2018-04-14T10:23:07.159Z,65.50
2018-04-14T10:25:34.676Z,63.70
2018-04-14T10:28:02.217Z,63.10
2018-04-14T10:30:29.869Z,63.00
2018-04-14T10:32:58.220Z,64.30
2018-04-14T10:35:25.767Z,64.20
2018-04-14T10:37:53.805Z,62.90
2018-04-14T10:40:21.248Z,62.90
2018-04-14T10:42:49.532Z,63.20
2018-04-14T10:45:17.833Z,62.50
2018-04-14T10:47:45.396Z,62.50
2018-04-14T10:50:12.906Z,62.20
2018-04-14T10:52:40.767Z,61.80
2018-04-14T10:55:08.297Z,60.70
2018-04-14T10:57:35.848Z,60.50
2018-04-14T11:00:04.115Z,60.00
2018-04-14T11:02:32.381Z,59.60
2018-04-14T11:05:01.411Z,59.90
2018-04-14T11:07:28.930Z,59.90
2018-04-14T11:09:56.433Z,59.70
2018-04-14T11:12:24.704Z,59.20
2018-04-14T11:14:52.954Z,59.30
2018-04-14T11:17:20.468Z,59.20
2018-04-14T11:19:47.979Z,58.70
2018-04-14T11:22:15.511Z,58.70
2018-04-14T11:24:42.996Z,58.60
2018-04-14T11:27:10.506Z,59.20
2018-04-14T11:29:39.389Z,59.40
2018-04-14T11:32:07.695Z,59.10
2018-04-14T11:34:35.201Z,59.50
2018-04-14T11:37:02.707Z,59.60
2018-04-14T11:39:30.989Z,60.20
2018-04-14T11:41:59.307Z,60.00
2018-04-14T11:44:26.890Z,60.00
2018-04-14T11:46:55.070Z,60.10
2018-04-14T11:49:22.565Z,60.00
2018-04-14T11:51:50.854Z,60.60
2018-04-14T11:54:19.142Z,61.40
2018-04-14T11:56:46.726Z,61.10
2018-04-14T11:59:16.379Z,61.80
2018-04-14T12:01:48.259Z,62.30
2018-04-14T12:04:17.819Z,62.80
2018-04-14T12:06:45.438Z,62.90
2018-04-14T12:09:20.186Z,64.60
2018-04-14T12:11:48.470Z,65.90
2018-04-14T12:14:17.533Z,65.80
2018-04-14T12:16:45.941Z,69.60
2018-04-14T12:19:14.319Z,72.00
2018-04-14T12:21:42.612Z,74.10
2018-04-14T12:24:10.897Z,76.10
2018-04-14T12:26:38.451Z,76.10
2018-04-14T12:29:06.730Z,77.90
2018-04-14T12:31:35.007Z,78.10
2018-04-14T12:34:02.562Z,78.10
2018-04-14T12:36:30.253Z,79.80
2018-04-14T12:38:58.549Z,81.70
2018-04-14T12:41:26.059Z,81.60
2018-04-14T12:43:53.684Z,81.80
2018-04-14T12:46:21.841Z,82.30
2018-04-14T12:48:49.380Z,83.00
2018-04-14T12:51:17.666Z,82.80
2018-04-14T12:53:45.208Z,82.10
2018-04-14T12:56:13.530Z,81.40
2018-04-14T12:58:42.620Z,81.60
2018-04-14T13:01:11.948Z,82.30
2018-04-14T13:03:39.461Z,82.30
2018-04-14T13:06:07.028Z,82.80
2018-04-14T13:08:35.507Z,85.20
2018-04-14T13:11:04.200Z,84.50
2018-04-14T13:13:31.727Z,85.00
2018-04-14T13:15:59.294Z,83.80
2018-04-14T13:18:27.839Z,81.60
2018-04-14T13:20:55.506Z,80.80
2018-04-14T13:23:24.284Z,81.20
2018-04-14T13:25:51.800Z,81.10
2018-04-14T13:28:19.596Z,81.70
2018-04-14T13:30:47.460Z,82.00
2018-04-14T13:33:15.742Z,81.30
2018-04-14T13:35:43.280Z,79.70
2018-04-14T13:38:10.769Z,78.00
2018-04-14T13:40:38.284Z,76.70
2018-04-14T13:43:06.572Z,75.70
2018-04-14T13:45:34.099Z,75.50
2018-04-14T13:48:01.644Z,75.10
2018-04-14T13:50:30.154Z,76.60
2018-04-14T13:52:59.896Z,76.70
2018-04-14T13:55:28.911Z,75.70
2018-04-14T13:57:56.713Z,76.50
2018-04-14T14:00:25.058Z,75.80
2018-04-14T14:02:52.559Z,76.80
2018-04-14T14:08:03.520Z,74.90
2018-04-14T14:10:31.040Z,74.70
2018-04-14T14:12:58.525Z,74.30
2018-04-14T14:15:26.894Z,72.00
2018-04-14T14:17:54.464Z,72.00
2018-04-14T14:20:23.107Z,72.00
2018-04-14T14:22:50.605Z,72.00
2018-04-14T14:25:18.928Z,73.10
2018-04-14T14:27:46.412Z,73.00
2018-04-14T14:30:13.925Z,71.40
2018-04-14T14:32:42.196Z,71.80
2018-04-14T14:35:10.503Z,71.10
2018-04-14T14:37:38.001Z,71.00
2018-04-14T14:40:05.516Z,70.20
2018-04-14T14:42:33.809Z,68.80
2018-04-14T14:45:02.130Z,68.90
2018-04-14T14:47:35.454Z,68.80
2018-04-14T14:50:08.775Z,68.40
2018-04-14T14:52:37.028Z,69.50
2018-04-14T14:55:04.535Z,69.50
2018-04-14T14:57:32.035Z,69.50
2018-04-14T14:59:59.715Z,69.80
2018-04-14T15:02:27.232Z,69.30
2018-04-14T15:04:54.761Z,67.70
2018-04-14T15:07:22.307Z,66.90
2018-04-14T15:09:49.803Z,66.00
2018-04-14T15:12:18.102Z,65.40
2018-04-14T15:14:47.815Z,65.30
2018-04-14T15:17:15.410Z,64.80
2018-04-14T15:19:43.719Z,63.80
2018-04-14T15:22:11.251Z,64.20
2018-04-14T15:24:38.767Z,63.50
2018-04-14T15:27:07.078Z,63.30
2018-04-14T15:29:34.609Z,63.30
2018-04-14T15:32:02.914Z,64.10
2018-04-14T15:34:30.429Z,64.10
2018-04-14T15:36:58.531Z,64.10
2018-04-14T15:39:26.797Z,65.20
2018-04-14T15:41:54.313Z,65.20
2018-04-14T15:44:22.597Z,65.50
2018-04-14T15:46:50.104Z,65.00
2018-04-14T15:49:18.598Z,64.90
2018-04-14T15:51:46.897Z,64.10
2018-04-14T15:54:14.633Z,64.10
2018-04-14T15:56:43.114Z,63.70
2018-04-14T15:59:11.644Z,64.00
2018-04-14T16:01:39.159Z,64.00
2018-04-14T16:04:09.789Z,63.90
2018-04-14T16:06:34.944Z,63.50
2018-04-14T16:09:02.456Z,63.50
2018-04-14T16:11:30.020Z,63.40
2018-04-14T16:13:57.593Z,64.20
2018-04-14T16:16:25.112Z,64.30
2018-04-14T16:18:52.764Z,64.20
2018-04-14T16:21:21.137Z,63.50
2018-04-14T16:23:48.752Z,63.50
2018-04-14T16:26:16.258Z,62.90
2018-04-14T16:28:43.790Z,62.50
2018-04-14T16:31:11.311Z,62.10
2018-04-14T16:33:39.192Z,62.50
2018-04-14T16:36:06.712Z,62.70
2018-04-14T16:38:34.290Z,63.00
2018-04-14T16:41:02.590Z,63.60
2018-04-14T16:43:31.024Z,63.60
2018-04-14T16:45:58.519Z,63.60
2018-04-14T16:48:26.041Z,63.50
2018-04-14T16:50:53.746Z,64.40
2018-04-14T16:53:22.027Z,63.50
2018-04-14T16:55:49.660Z,63.50
2018-04-14T16:58:17.177Z,63.80
2018-04-14T17:00:45.439Z,62.90
2018-04-14T17:03:13.712Z,63.50
2018-04-14T17:05:41.220Z,63.10
2018-04-14T17:08:08.835Z,63.30
2018-04-14T17:10:36.346Z,63.30
2018-04-14T17:13:03.966Z,63.60
2018-04-14T17:15:31.461Z,64.00
2018-04-14T17:17:59.924Z,64.40
2018-04-14T17:20:27.431Z,64.30
2018-04-14T17:22:54.964Z,64.90
2018-04-14T17:25:23.327Z,66.00
2018-04-14T17:27:50.861Z,65.90
2018-04-14T17:30:19.209Z,65.40
2018-04-14T17:32:46.867Z,65.20
2018-04-14T17:35:14.378Z,66.60
2018-04-14T17:37:41.881Z,66.40
2018-04-14T17:40:10.926Z,68.50
2018-04-14T17:42:38.459Z,68.50
2018-04-14T17:45:06.805Z,69.10
2018-04-14T17:47:34.347Z,69.00
2018-04-14T17:50:01.890Z,70.20
2018-04-14T17:52:29.469Z,69.90
2018-04-14T17:54:56.989Z,71.50
2018-04-14T17:57:25.260Z,75.40
2018-04-14T17:59:53.651Z,76.40
2018-04-14T18:02:21.918Z,77.30
2018-04-14T18:04:50.228Z,77.90
2018-04-14T18:07:17.719Z,77.80
2018-04-14T18:09:45.234Z,78.30
2018-04-14T18:12:13.543Z,79.10
2018-04-14T18:14:41.878Z,79.00
2018-04-14T18:17:10.327Z,79.00
2018-04-14T18:19:37.862Z,79.40
2018-04-14T18:22:05.569Z,79.70
2018-04-14T18:24:33.097Z,79.80
2018-04-14T18:27:00.738Z,80.10
2018-04-14T18:29:29.071Z,80.60
2018-04-14T18:31:57.311Z,80.50
2018-04-14T18:34:25.972Z,81.40
2018-04-14T18:36:53.476Z,80.80
2018-04-14T18:39:21.560Z,80.90
2018-04-14T18:41:49.053Z,80.80
2018-04-14T18:44:16.600Z,80.80
2018-04-14T18:46:44.137Z,80.60
2018-04-14T18:49:11.685Z,80.90
2018-04-14T18:51:40.276Z,80.00
2018-04-14T18:54:08.568Z,80.40
2018-04-14T18:56:36.111Z,79.70
2018-04-14T18:59:04.505Z,79.90
2018-04-14T19:01:32.757Z,80.00
2018-04-14T19:04:00.257Z,80.00
2018-04-14T19:06:29.496Z,80.30
2018-04-14T19:08:57.065Z,80.20
2018-04-14T19:11:24.669Z,80.30
2018-04-14T19:13:53.087Z,80.40
2018-04-14T19:16:20.632Z,80.40
2018-04-14T19:18:48.911Z,80.70
2018-04-14T19:21:17.179Z,80.70
2018-04-14T19:23:48.341Z,80.60
2018-04-14T19:26:19.091Z,80.90
2018-04-14T19:28:46.617Z,80.90
2018-04-14T19:31:14.249Z,81.00
2018-04-14T19:33:42.155Z,81.20
2018-04-14T19:36:11.280Z,81.70
2018-04-14T19:38:40.377Z,81.50
2018-04-14T19:41:09.018Z,81.70
2018-04-14T19:43:37.755Z,82.00
2018-04-14T19:46:06.025Z,82.10
2018-04-14T19:48:33.555Z,82.10
2018-04-14T19:51:01.056Z,82.40
2018-04-14T19:53:28.728Z,82.20
2018-04-14T19:55:57.001Z,82.00
2018-04-14T19:58:24.497Z,82.00
2018-04-14T20:00:52.053Z,81.60
2018-04-14T20:03:19.571Z,81.50
2018-04-14T20:05:47.088Z,81.70
2018-04-14T20:08:14.613Z,81.90
2018-04-14T20:10:42.956Z,82.20
2018-04-14T20:13:10.981Z,82.00
2018-04-14T20:15:39.254Z,82.50
2018-04-14T20:18:06.782Z,82.50
2018-04-14T20:20:34.305Z,82.00
2018-04-14T20:23:02.760Z,82.10
2018-04-14T20:25:30.317Z,82.00
2018-04-14T20:27:59.340Z,82.70
2018-04-14T20:30:27.611Z,82.70
2018-04-14T20:32:55.106Z,82.60
2018-04-14T20:35:22.686Z,82.60
2018-04-14T20:37:50.213Z,82.20
2018-04-14T20:40:18.507Z,82.50
2018-04-14T20:42:46.853Z,83.10
2018-04-14T20:45:14.337Z,83.10
2018-04-14T20:47:42.631Z,83.50
2018-04-14T20:50:10.907Z,83.50
2018-04-14T20:52:39.227Z,83.60
2018-04-14T20:55:06.797Z,83.60
2018-04-14T20:57:34.346Z,83.80
2018-04-14T21:00:01.845Z,84.10
2018-04-14T21:02:29.435Z,84.50
2018-04-14T21:04:57.686Z,85.00
2018-04-14T21:07:25.290Z,84.80
2018-04-14T21:09:53.909Z,85.10
2018-04-14T21:12:21.409Z,85.10
2018-04-14T21:14:48.931Z,85.00
2018-04-14T21:17:16.449Z,85.10
2018-04-14T21:19:45.087Z,85.90
2018-04-14T21:22:15.789Z,86.20
2018-04-14T21:24:43.354Z,86.20
2018-04-14T21:27:11.624Z,87.40
2018-04-14T21:29:39.404Z,87.20
2018-04-14T21:32:07.674Z,88.40
2018-04-14T21:34:36.061Z,88.40
2018-04-14T21:37:03.576Z,88.60
2018-04-14T21:39:34.121Z,88.30
2018-04-14T21:42:02.934Z,89.30
2018-04-14T21:44:31.268Z,90.00
2018-04-14T21:46:58.798Z,90.00
2018-04-14T21:49:26.412Z,90.10
2018-04-14T21:51:53.921Z,90.50
2018-04-14T21:54:21.526Z,90.40
2018-04-14T21:56:50.122Z,90.40
2018-04-14T21:59:20.259Z,90.40
2018-04-14T22:01:47.977Z,90.50
2018-04-14T22:04:15.608Z,90.40
2018-04-14T22:06:43.126Z,90.40
2018-04-14T22:09:11.149Z,90.40
2018-04-14T22:11:38.684Z,90.40
2018-04-14T22:14:06.215Z,90.50
2018-04-14T22:16:34.484Z,90.60
2018-04-14T22:19:02.758Z,91.00
2018-04-14T22:21:30.287Z,90.70
2018-04-14T22:23:57.805Z,90.80
2018-04-14T22:26:26.118Z,91.00
2018-04-14T22:28:54.023Z,91.00
2018-04-14T22:31:22.673Z,91.00
2018-04-14T22:33:50.177Z,91.10
2018-04-14T22:36:17.671Z,91.10
2018-04-14T22:38:46.377Z,91.20
2018-04-14T22:41:13.885Z,91.20
2018-04-14T22:43:41.418Z,91.30
2018-04-14T22:46:08.939Z,91.30
2018-04-14T22:48:37.278Z,91.60
2018-04-14T22:51:05.808Z,91.60
2018-04-14T22:53:35.093Z,91.80
2018-04-14T22:56:02.731Z,91.70
2018-04-14T22:58:30.251Z,91.80
2018-04-14T23:00:58.535Z,91.90
2018-04-14T23:03:26.809Z,92.00
2018-04-14T23:05:55.081Z,92.00
2018-04-14T23:08:22.614Z,92.00
2018-04-14T23:10:50.115Z,92.00
2018-04-14T23:13:18.385Z,92.10
2018-04-14T23:15:45.905Z,92.10
2018-04-14T23:18:13.469Z,92.40
2018-04-14T23:20:41.815Z,92.00
2018-04-14T23:23:10.124Z,92.10
2018-04-14T23:25:37.616Z,92.10
2018-04-14T23:28:05.782Z,92.10
2018-04-14T23:30:33.278Z,92.10
2018-04-14T23:33:00.791Z,92.10
2018-04-14T23:35:28.283Z,91.80
2018-04-14T23:37:55.788Z,92.00
2018-04-14T23:40:24.052Z,92.10
2018-04-14T23:42:52.332Z,92.20
2018-04-14T23:45:20.600Z,92.20
2018-04-14T23:47:48.127Z,92.10
2018-04-14T23:50:15.625Z,92.20
2018-04-14T23:52:43.900Z,92.50
2018-04-14T23:55:11.406Z,92.30
2018-04-14T23:57:39.690Z,92.40
